• Join FlightAware (Why Join?)
  • Login
  • US Flag 
09:56PM EDT


 

Airport Tracker/Info


-or-


 

Live Flight TrackerFlight Track Log ✈ N75ZM ✈ 18-Aug-2013 ✈ KSFB - KHXD

Flight Track Log - Related Links

Times and Time Zones

All times are in EDT time to prevent confusion due to time zone crossing. See the N75ZM flight status page for this flight to view local times or setup timezone preferences in your user account.

Time Position Orientation Groundspeed Altitude Reporting Facility
EDT Latitude Longitude Course Direction KTS MPH feet Rate Location/Type
03:18PM 28.8167 -81.2000 41° Northeast 127 146 1,700  Level Orlando TRACON
03:21PM 28.8758 -81.2375 331° Northwest 143 165 3,900 780 Climbing Jacksonville Center
03:22PM 28.8722 -81.2828 265° West 139 160 4,600 600 Climbing Jacksonville Center
03:23PM 28.8894 -81.3203 298° West 156 180 5,200 540 Climbing Jacksonville Center
03:24PM 28.9317 -81.3481 330° Northwest 164 189 5,800 540 Climbing Jacksonville Center
03:25PM 28.9653 -81.3736 326° Northwest 143 165 6,400 600 Climbing Jacksonville Center
03:26PM 29.0050 -81.3803 352° North 140 161 7,100 600 Climbing Jacksonville Center
03:27PM 29.0447 -81.3867 352° North 147 169 7,700 480 Climbing Jacksonville Center
03:28PM 29.0844 -81.3908 355° North 142 163 8,100 420 Climbing Jacksonville Center
03:29PM 29.1219 -81.3928 357° North 145 167 8,600 480 Climbing Jacksonville Center
03:30PM 29.1617 -81.3969 355° North 150 173 9,100 240 Climbing Jacksonville Center
03:31PM 29.2078 -81.4033 353° North 163 188 9,200  Climbing Jacksonville Center
03:32PM 29.2558 -81.4072 356° North 178 205 9,200  Level Jacksonville Center
03:33PM 29.3061 -81.4136 354° North 179 206 9,200  Level Jacksonville Center
03:34PM 29.3542 -81.4178 356° North 178 205 9,200  Level Jacksonville Center
03:35PM 29.4042 -81.4217 356° North 177 204 9,200  Level Jacksonville Center
03:36PM 29.4586 -81.4281 354° North 178 205 9,200  Level Jacksonville Center
03:37PM 29.5067 -81.4322 356° North 178 205 9,200  Level Jacksonville Center
03:38PM 29.5567 -81.4361 356° North 177 204 9,200  Level Jacksonville Center
03:39PM 29.6069 -81.4425 354° North 176 203 9,200  Level Jacksonville Center
03:40PM 29.6550 -81.4467 356° North 177 204 9,200 -60 Level Jacksonville Center
03:41PM 29.6989 -81.4483 358° North 179 206 9,100 -60 Descending Jacksonville Center
03:42PM 29.7469 -81.4572 351° North 177 204 9,100  Level Jacksonville Center
03:43PM 29.7928 -81.4589 358° North 177 204 9,100  Level Jacksonville Center
03:44PM 29.8389 -81.4631 356° North 177 204 9,100 -60 Level Jacksonville Center
03:45PM 29.8872 -81.4817 342° North 182 209 9,000  Descending Jacksonville Center
03:46PM 29.9333 -81.5072 334° Northwest 180 207 9,100  Climbing Jacksonville Center
03:47PM 29.9794 -81.5331 334° Northwest 181 208 9,100  Level Jacksonville Center
03:48PM 30.0258 -81.5611 332° Northwest 182 209 9,100 -60 Level Jacksonville Center
03:49PM 30.0719 -81.5869 334° Northwest 180 207 9,000  Descending Jacksonville Center
03:50PM 30.1369 -81.6244 333° Northwest 183 211 9,100  Climbing Jacksonville Center
03:51PM 30.1792 -81.6503 332° Northwest 182 209 9,000  Descending Jacksonville Center
03:52PM 30.2064 -81.6644 336° Northwest 180 207 9,100 60 Climbing Jacksonville Center
03:53PM 30.2503 -81.6903 333° Northwest 179 206 9,100  Level Jacksonville Center
03:54PM 30.2944 -81.7161 333° Northwest 174 200 9,100  Level Jacksonville Center
03:55PM 30.3406 -81.7444 332° Northwest 176 203 9,100  Level Jacksonville Center
03:56PM 30.3847 -81.7681 335° Northwest 178 205 9,100  Level Jacksonville Center
03:57PM 30.4289 -81.7964 331° Northwest 178 205 9,100  Level Jacksonville Center
03:58PM 30.4750 -81.8225 334° Northwest 180 207 9,100  Level Jacksonville Center
03:59PM 30.5192 -81.8483 333° Northwest 181 208 9,100  Level Jacksonville Center
04:00PM 30.5653 -81.8769 332° Northwest 180 207 9,100 -60 Level Jacksonville Center
04:01PM 30.6092 -81.9006 335° Northwest 178 205 9,000  Descending Jacksonville Center
04:02PM 30.6533 -81.9267 333° Northwest 180 207 9,100  Climbing Jacksonville Center
04:03PM 30.6972 -81.9528 333° Northwest 187 215 9,000  Descending Jacksonville Center
04:04PM 30.7414 -81.9789 333° Northwest 192 221 9,100  Climbing Jacksonville Center
04:05PM 30.7917 -81.9931 346° North 187 215 9,000  Descending Jacksonville Center
04:06PM 30.8378 -82.0094 343° North 182 209 9,100  Climbing Jacksonville Center
04:07PM 30.8836 -82.0211 348° North 176 203 9,000  Descending Jacksonville Center
04:08PM 30.9317 -82.0353 346° North 176 203 9,100  Climbing Jacksonville Center
04:09PM 30.9800 -82.0494 346° North 176 203 9,100  Level Jacksonville Center
04:10PM 31.0281 -82.0633 346° North 176 203 9,100 -60 Level Jacksonville Center
04:11PM 31.0761 -82.0753 348° North 171 197 9,000  Descending Jacksonville Center
04:12PM 31.1242 -82.0869 348° North 171 197 9,100  Climbing Jacksonville Center
04:13PM 31.1722 -82.0986 348° North 171 197 9,000  Descending Jacksonville Center
04:14PM 31.2183 -82.1128 345° North 171 197 9,100  Climbing Jacksonville Center
04:15PM 31.2664 -82.1244 348° North 171 197 9,000 -60 Descending Jacksonville Center
04:16PM 31.3167 -82.1386 346° North 171 197 9,000  Level Jacksonville Center
04:17PM 31.3667 -82.1456 353° North 183 211 9,000  Level Jacksonville Center
04:18PM 31.4147 -82.1550 350° North 183 211 9,100  Climbing Jacksonville Center
04:19PM 31.4692 -82.1594 356° North 176 203 9,000 -60 Descending Jacksonville Center
04:20PM 31.5172 -82.1614 358° North 176 203 9,000  Level Jacksonville Center
04:21PM 31.5672 -82.1683 353° North 176 203 9,000  Level Jacksonville Center
04:22PM 31.6111 -82.1706 358° North 176 203 9,000  Level Jacksonville Center
04:23PM 31.6675 -82.1725 358° North 176 203 9,100  Climbing Jacksonville Center
04:24PM 31.7178 -82.1697 North 176 203 9,000  Descending Jacksonville Center
04:25PM 31.7678 -82.1667 North 176 203 9,100  Climbing Jacksonville Center
04:26PM 31.8117 -82.1542 14° North 176 203 9,000  Descending Jacksonville Center
04:27PM 31.8447 -82.1125 47° Northeast 171 197 9,100  Climbing Jacksonville Center
04:28PM 31.8736 -82.0583 58° Northeast 177 204 9,000  Descending Jacksonville Center
04:29PM 31.9025 -82.0117 54° Northeast 182 209 9,100  Climbing Jacksonville Center
04:30PM 31.9250 -81.9600 63° Northeast 181 208 9,000 -60 Descending Jacksonville Center
04:31PM 31.9372 -81.9133 73° East 174 200 9,000  Level Jacksonville Center
04:32PM 31.9494 -81.8594 75° East 169 194 9,100  Climbing Jacksonville Center
04:33PM 31.9636 -81.8028 74° East 159 183 9,000 -60 Descending Jacksonville Center
04:34PM 31.9756 -81.7511 75° East 159 183 9,000  Level Jacksonville Center
04:35PM 31.9878 -81.7022 74° East 164 189 9,000  Level Jacksonville Center
04:37PM 32.0000 -81.6271 75° East  Level FlightAware Approximate
04:44PM 32.0774 -81.2853 75° East  Level FlightAware Approximate
04:45PM 32.0883 -81.2364 75° East  Level FlightAware Approximate
04:46PM 32.0992 -81.1875 75° East  Level FlightAware Approximate